sensor_id;sensor_type;location;lat;lon;timestamp;P1;durP1;ratioP1;P2;durP2;ratioP2
20794;SDS011;28087;-33.874;151.240;2024-01-15T00:01:35;28.20;;;4.40;;
20794;SDS011;28087;-33.874;151.240;2024-01-15T00:04:42;21.58;;;4.13;;
20794;SDS011;28087;-33.874;151.240;2024-01-15T00:07:44;21.05;;;4.20;;
20794;SDS011;28087;-33.874;151.240;2024-01-15T00:10:45;23.42;;;4.20;;
20794;SDS011;28087;-33.874;151.240;2024-01-15T00:13:52;25.70;;;4.65;;
20794;SDS011;28087;-33.874;151.240;2024-01-15T00:16:59;23.48;;;3.80;;
20794;SDS011;28087;-33.874;151.240;2024-01-15T00:20:10;23.58;;;4.22;;
20794;SDS011;28087;-33.874;151.240;2024-01-15T00:23:17;24.25;;;4.10;;
20794;SDS011;28087;-33.874;151.240;2024-01-15T00:26:25;28.15;;;4.18;;
20794;SDS011;28087;-33.874;151.240;2024-01-15T00:29:31;20.85;;;4.25;;
20794;SDS011;28087;-33.874;151.240;2024-01-15T00:32:37;21.17;;;4.13;;
20794;SDS011;28087;-33.874;151.240;2024-01-15T00:35:46;20.88;;;3.50;;
20794;SDS011;28087;-33.874;151.240;2024-01-15T00:38:53;20.52;;;3.60;;
20794;SDS011;28087;-33.874;151.240;2024-01-15T00:42:04;16.65;;;3.55;;
20794;SDS011;28087;-33.874;151.240;2024-01-15T00:45:12;21.67;;;3.45;;
20794;SDS011;28087;-33.874;151.240;2024-01-15T00:48:24;19.45;;;3.90;;
20794;SDS011;28087;-33.874;151.240;2024-01-15T00:51:46;20.58;;;3.25;;
20794;SDS011;28087;-33.874;151.240;2024-01-15T00:54:56;15.25;;;3.17;;
20794;SDS011;28087;-33.874;151.240;2024-01-15T00:58:08;14.95;;;3.40;;
20794;SDS011;28087;-33.874;151.240;2024-01-15T01:01:16;18.67;;;4.88;;
20794;SDS011;28087;-33.874;151.240;2024-01-15T01:04:24;18.48;;;4.57;;
20794;SDS011;28087;-33.874;151.240;2024-01-15T01:07:37;20.02;;;3.65;;
20794;SDS011;28087;-33.874;151.240;2024-01-15T01:10:50;17.65;;;3.53;;
20794;SDS011;28087;-33.874;151.240;2024-01-15T01:13:59;21.70;;;3.40;;
20794;SDS011;28087;-33.874;151.240;2024-01-15T01:17:13;22.30;;;3.80;;
20794;SDS011;28087;-33.874;151.240;2024-01-15T01:20:26;21.08;;;3.47;;
20794;SDS011;28087;-33.874;151.240;2024-01-15T01:23:39;17.15;;;3.45;;
20794;SDS011;28087;-33.874;151.240;2024-01-15T01:26:58;25.98;;;4.07;;
20794;SDS011;28087;-33.874;151.240;2024-01-15T01:30:15;19.52;;;3.38;;
20794;SDS011;28087;-33.874;151.240;2024-01-15T01:33:26;15.65;;;3.10;;
20794;SDS011;28087;-33.874;151.240;2024-01-15T01:36:36;14.98;;;2.92;;
20794;SDS011;28087;-33.874;151.240;2024-01-15T01:39:48;19.42;;;3.33;;
20794;SDS011;28087;-33.874;151.240;2024-01-15T01:42:56;18.92;;;3.05;;
20794;SDS011;28087;-33.874;151.240;2024-01-15T01:46:10;18.90;;;3.58;;
20794;SDS011;28087;-33.874;151.240;2024-01-15T01:49:22;17.63;;;3.22;;
20794;SDS011;28087;-33.874;151.240;2024-01-15T01:52:32;17.50;;;3.00;;
20794;SDS011;28087;-33.874;151.240;2024-01-15T01:55:49;15.45;;;3.10;;
20794;SDS011;28087;-33.874;151.240;2024-01-15T01:59:12;16.60;;;3.25;;
20794;SDS011;28087;-33.874;151.240;2024-01-15T02:02:30;19.20;;;3.10;;
20794;SDS011;28087;-33.874;151.240;2024-01-15T02:05:39;13.30;;;2.47;;
20794;SDS011;28087;-33.874;151.240;2024-01-15T02:08:49;16.48;;;3.00;;
20794;SDS011;28087;-33.874;151.240;2024-01-15T02:11:54;18.15;;;2.85;;
20794;SDS011;28087;-33.874;151.240;2024-01-15T02:14:58;12.25;;;2.30;;
20794;SDS011;28087;-33.874;151.240;2024-01-15T02:18:10;14.30;;;2.70;;
20794;SDS011;28087;-33.874;151.240;2024-01-15T02:21:29;20.25;;;3.47;;
20794;SDS011;28087;-33.874;151.240;2024-01-15T02:24:39;20.45;;;3.05;;
20794;SDS011;28087;-33.874;151.240;2024-01-15T02:27:49;16.45;;;2.63;;
20794;SDS011;28087;-33.874;151.240;2024-01-15T02:31:04;16.73;;;2.78;;
20794;SDS011;28087;-33.874;151.240;2024-01-15T02:34:16;13.70;;;2.67;;
20794;SDS011;28087;-33.874;151.240;2024-01-15T02:37:29;18.00;;;3.25;;
20794;SDS011;28087;-33.874;151.240;2024-01-15T02:40:46;16.60;;;2.70;;
20794;SDS011;28087;-33.874;151.240;2024-01-15T02:44:00;16.35;;;3.15;;
20794;SDS011;28087;-33.874;151.240;2024-01-15T02:47:14;17.98;;;2.75;;
20794;SDS011;28087;-33.874;151.240;2024-01-15T02:50:24;16.13;;;2.90;;
20794;SDS011;28087;-33.874;151.240;2024-01-15T02:53:41;15.07;;;2.92;;
20794;SDS011;28087;-33.874;151.240;2024-01-15T02:56:56;15.70;;;2.85;;
20794;SDS011;28087;-33.874;151.240;2024-01-15T03:00:09;17.20;;;2.92;;
20794;SDS011;28087;-33.874;151.240;2024-01-15T03:03:37;14.63;;;2.75;;
20794;SDS011;28087;-33.874;151.240;2024-01-15T03:06:48;21.40;;;3.30;;
20794;SDS011;28087;-33.874;151.240;2024-01-15T03:10:01;15.93;;;2.90;;
20794;SDS011;28087;-33.874;151.240;2024-01-15T03:13:08;15.30;;;2.90;;
20794;SDS011;28087;-33.874;151.240;2024-01-15T03:16:11;16.83;;;3.05;;
20794;SDS011;28087;-33.874;151.240;2024-01-15T03:19:23;13.07;;;2.40;;
20794;SDS011;28087;-33.874;151.240;2024-01-15T03:22:37;13.63;;;2.78;;
20794;SDS011;28087;-33.874;151.240;2024-01-15T03:25:49;11.80;;;2.30;;
20794;SDS011;28087;-33.874;151.240;2024-01-15T03:28:58;9.50;;;2.60;;
20794;SDS011;28087;-33.874;151.240;2024-01-15T03:32:06;15.98;;;2.90;;
20794;SDS011;28087;-33.874;151.240;2024-01-15T03:35:19;16.05;;;2.92;;
20794;SDS011;28087;-33.874;151.240;2024-01-15T03:38:31;11.77;;;2.60;;
20794;SDS011;28087;-33.874;151.240;2024-01-15T03:41:39;19.67;;;3.10;;
20794;SDS011;28087;-33.874;151.240;2024-01-15T03:44:44;16.42;;;2.83;;
20794;SDS011;28087;-33.874;151.240;2024-01-15T03:48:01;13.85;;;2.88;;
20794;SDS011;28087;-33.874;151.240;2024-01-15T03:51:09;17.17;;;3.30;;
20794;SDS011;28087;-33.874;151.240;2024-01-15T03:54:31;13.38;;;2.42;;
20794;SDS011;28087;-33.874;151.240;2024-01-15T03:57:41;13.77;;;2.60;;
20794;SDS011;28087;-33.874;151.240;2024-01-15T04:01:06;15.00;;;2.58;;
20794;SDS011;28087;-33.874;151.240;2024-01-15T04:04:16;18.23;;;2.90;;
20794;SDS011;28087;-33.874;151.240;2024-01-15T04:07:36;14.77;;;2.80;;
20794;SDS011;28087;-33.874;151.240;2024-01-15T04:10:50;14.45;;;2.70;;
20794;SDS011;28087;-33.874;151.240;2024-01-15T04:14:05;18.42;;;3.13;;
20794;SDS011;28087;-33.874;151.240;2024-01-15T04:20:47;13.43;;;2.60;;
20794;SDS011;28087;-33.874;151.240;2024-01-15T04:23:56;10.82;;;2.28;;
20794;SDS011;28087;-33.874;151.240;2024-01-15T04:27:01;13.25;;;2.60;;
20794;SDS011;28087;-33.874;151.240;2024-01-15T04:30:08;17.65;;;2.60;;
20794;SDS011;28087;-33.874;151.240;2024-01-15T04:33:20;14.02;;;2.63;;
20794;SDS011;28087;-33.874;151.240;2024-01-15T04:36:41;13.95;;;2.58;;
20794;SDS011;28087;-33.874;151.240;2024-01-15T04:39:50;15.48;;;2.97;;
20794;SDS011;28087;-33.874;151.240;2024-01-15T04:43:01;13.40;;;2.70;;
20794;SDS011;28087;-33.874;151.240;2024-01-15T04:46:11;11.00;;;2.13;;
20794;SDS011;28087;-33.874;151.240;2024-01-15T04:49:19;11.85;;;2.20;;
20794;SDS011;28087;-33.874;151.240;2024-01-15T04:52:30;14.05;;;2.55;;
20794;SDS011;28087;-33.874;151.240;2024-01-15T04:55:37;14.85;;;2.63;;
20794;SDS011;28087;-33.874;151.240;2024-01-15T04:58:45;17.15;;;2.60;;
20794;SDS011;28087;-33.874;151.240;2024-01-15T05:01:57;14.05;;;2.00;;
20794;SDS011;28087;-33.874;151.240;2024-01-15T05:05:09;14.02;;;2.30;;
20794;SDS011;28087;-33.874;151.240;2024-01-15T05:08:18;16.75;;;2.70;;
20794;SDS011;28087;-33.874;151.240;2024-01-15T05:11:41;12.07;;;2.78;;
20794;SDS011;28087;-33.874;151.240;2024-01-15T05:14:52;15.45;;;2.83;;
20794;SDS011;28087;-33.874;151.240;2024-01-15T05:17:59;14.85;;;3.00;;
20794;SDS011;28087;-33.874;151.240;2024-01-15T05:21:06;19.42;;;2.97;;
20794;SDS011;28087;-33.874;151.240;2024-01-15T05:24:14;15.57;;;3.22;;
20794;SDS011;28087;-33.874;151.240;2024-01-15T05:27:21;17.25;;;3.20;;
20794;SDS011;28087;-33.874;151.240;2024-01-15T05:30:27;12.48;;;2.42;;
20794;SDS011;28087;-33.874;151.240;2024-01-15T05:33:38;18.30;;;2.88;;
20794;SDS011;28087;-33.874;151.240;2024-01-15T05:41:06;16.25;;;2.95;;
20794;SDS011;28087;-33.874;151.240;2024-01-15T05:44:13;15.60;;;2.83;;
20794;SDS011;28087;-33.874;151.240;2024-01-15T05:47:20;18.25;;;3.10;;
20794;SDS011;28087;-33.874;151.240;2024-01-15T05:50:26;13.93;;;2.40;;
20794;SDS011;28087;-33.874;151.240;2024-01-15T05:53:33;13.93;;;2.60;;
20794;SDS011;28087;-33.874;151.240;2024-01-15T05:56:44;13.18;;;2.35;;
20794;SDS011;28087;-33.874;151.240;2024-01-15T05:59:50;15.30;;;2.97;;
20794;SDS011;28087;-33.874;151.240;2024-01-15T06:02:56;13.38;;;2.35;;
20794;SDS011;28087;-33.874;151.240;2024-01-15T06:06:03;13.05;;;2.65;;
20794;SDS011;28087;-33.874;151.240;2024-01-15T06:09:10;16.52;;;2.97;;
20794;SDS011;28087;-33.874;151.240;2024-01-15T06:12:20;13.23;;;2.50;;
20794;SDS011;28087;-33.874;151.240;2024-01-15T06:15:27;15.57;;;2.50;;
20794;SDS011;28087;-33.874;151.240;2024-01-15T06:18:33;13.02;;;2.55;;
20794;SDS011;28087;-33.874;151.240;2024-01-15T06:21:40;11.27;;;2.15;;
20794;SDS011;28087;-33.874;151.240;2024-01-15T06:24:48;12.25;;;2.40;;
20794;SDS011;28087;-33.874;151.240;2024-01-15T06:27:57;12.00;;;2.25;;
20794;SDS011;28087;-33.874;151.240;2024-01-15T06:31:02;15.38;;;2.28;;
20794;SDS011;28087;-33.874;151.240;2024-01-15T06:34:08;13.95;;;2.25;;
20794;SDS011;28087;-33.874;151.240;2024-01-15T06:37:15;14.07;;;2.15;;
20794;SDS011;28087;-33.874;151.240;2024-01-15T06:40:21;12.15;;;2.30;;
20794;SDS011;28087;-33.874;151.240;2024-01-15T06:43:32;11.10;;;2.00;;
20794;SDS011;28087;-33.874;151.240;2024-01-15T06:46:44;16.08;;;2.63;;
20794;SDS011;28087;-33.874;151.240;2024-01-15T06:49:54;17.10;;;2.95;;
20794;SDS011;28087;-33.874;151.240;2024-01-15T06:53:06;13.93;;;2.40;;
20794;SDS011;28087;-33.874;151.240;2024-01-15T06:56:18;15.18;;;2.78;;
20794;SDS011;28087;-33.874;151.240;2024-01-15T06:59:29;10.70;;;2.13;;
20794;SDS011;28087;-33.874;151.240;2024-01-15T07:02:35;15.73;;;2.55;;
20794;SDS011;28087;-33.874;151.240;2024-01-15T07:05:42;11.63;;;2.28;;
20794;SDS011;28087;-33.874;151.240;2024-01-15T07:08:50;13.73;;;2.67;;
20794;SDS011;28087;-33.874;151.240;2024-01-15T07:11:57;12.35;;;2.38;;
20794;SDS011;28087;-33.874;151.240;2024-01-15T07:15:08;13.63;;;2.55;;
20794;SDS011;28087;-33.874;151.240;2024-01-15T07:18:14;13.00;;;1.90;;
20794;SDS011;28087;-33.874;151.240;2024-01-15T07:21:20;9.20;;;2.17;;
20794;SDS011;28087;-33.874;151.240;2024-01-15T07:24:27;11.60;;;2.38;;
20794;SDS011;28087;-33.874;151.240;2024-01-15T07:27:33;11.77;;;2.50;;
20794;SDS011;28087;-33.874;151.240;2024-01-15T07:30:42;12.05;;;5.30;;
20794;SDS011;28087;-33.874;151.240;2024-01-15T07:33:49;15.95;;;2.58;;
20794;SDS011;28087;-33.874;151.240;2024-01-15T07:36:57;17.63;;;2.45;;
20794;SDS011;28087;-33.874;151.240;2024-01-15T07:40:10;12.48;;;2.40;;
20794;SDS011;28087;-33.874;151.240;2024-01-15T07:43:28;9.13;;;2.17;;
20794;SDS011;28087;-33.874;151.240;2024-01-15T07:47:01;13.60;;;2.35;;
20794;SDS011;28087;-33.874;151.240;2024-01-15T07:50:07;12.10;;;2.47;;
20794;SDS011;28087;-33.874;151.240;2024-01-15T07:53:13;10.45;;;1.95;;
20794;SDS011;28087;-33.874;151.240;2024-01-15T07:56:19;13.27;;;2.53;;
20794;SDS011;28087;-33.874;151.240;2024-01-15T07:59:25;16.83;;;2.78;;
20794;SDS011;28087;-33.874;151.240;2024-01-15T08:02:48;13.60;;;2.50;;
20794;SDS011;28087;-33.874;151.240;2024-01-15T08:05:55;13.38;;;3.00;;
20794;SDS011;28087;-33.874;151.240;2024-01-15T08:09:05;16.02;;;2.60;;
20794;SDS011;28087;-33.874;151.240;2024-01-15T08:12:12;16.25;;;2.58;;
20794;SDS011;28087;-33.874;151.240;2024-01-15T08:15:19;15.55;;;2.45;;
20794;SDS011;28087;-33.874;151.240;2024-01-15T08:18:28;15.32;;;3.30;;
20794;SDS011;28087;-33.874;151.240;2024-01-15T08:21:43;17.60;;;3.50;;
20794;SDS011;28087;-33.874;151.240;2024-01-15T08:24:54;11.32;;;3.10;;
20794;SDS011;28087;-33.874;151.240;2024-01-15T08:28:03;12.05;;;3.13;;
20794;SDS011;28087;-33.874;151.240;2024-01-15T08:31:09;16.38;;;3.03;;
20794;SDS011;28087;-33.874;151.240;2024-01-15T08:34:19;16.60;;;2.97;;
20794;SDS011;28087;-33.874;151.240;2024-01-15T08:37:28;13.23;;;2.78;;
20794;SDS011;28087;-33.874;151.240;2024-01-15T08:40:36;14.43;;;2.28;;
20794;SDS011;28087;-33.874;151.240;2024-01-15T08:43:42;13.02;;;2.17;;
20794;SDS011;28087;-33.874;151.240;2024-01-15T08:46:50;18.27;;;2.90;;
20794;SDS011;28087;-33.874;151.240;2024-01-15T08:49:59;12.32;;;2.42;;
20794;SDS011;28087;-33.874;151.240;2024-01-15T08:53:06;10.68;;;2.38;;
20794;SDS011;28087;-33.874;151.240;2024-01-15T08:56:14;10.82;;;2.05;;
20794;SDS011;28087;-33.874;151.240;2024-01-15T08:59:20;14.93;;;2.28;;
20794;SDS011;28087;-33.874;151.240;2024-01-15T09:02:26;11.52;;;2.42;;
20794;SDS011;28087;-33.874;151.240;2024-01-15T09:05:36;9.77;;;2.80;;
20794;SDS011;28087;-33.874;151.240;2024-01-15T09:08:42;17.08;;;3.00;;
20794;SDS011;28087;-33.874;151.240;2024-01-15T09:11:48;14.30;;;2.58;;
20794;SDS011;28087;-33.874;151.240;2024-01-15T09:14:54;16.70;;;3.33;;
20794;SDS011;28087;-33.874;151.240;2024-01-15T09:18:01;14.32;;;2.85;;
20794;SDS011;28087;-33.874;151.240;2024-01-15T09:21:10;12.15;;;2.70;;
20794;SDS011;28087;-33.874;151.240;2024-01-15T09:24:17;15.52;;;3.13;;
20794;SDS011;28087;-33.874;151.240;2024-01-15T09:27:23;15.45;;;3.38;;
20794;SDS011;28087;-33.874;151.240;2024-01-15T09:30:31;21.02;;;3.58;;
20794;SDS011;28087;-33.874;151.240;2024-01-15T09:33:39;16.00;;;2.88;;
20794;SDS011;28087;-33.874;151.240;2024-01-15T09:36:51;19.52;;;3.05;;
20794;SDS011;28087;-33.874;151.240;2024-01-15T09:40:06;16.15;;;3.33;;
20794;SDS011;28087;-33.874;151.240;2024-01-15T09:43:07;15.98;;;3.08;;
20794;SDS011;28087;-33.874;151.240;2024-01-15T09:46:17;14.15;;;3.05;;
20794;SDS011;28087;-33.874;151.240;2024-01-15T09:49:24;18.13;;;2.47;;
20794;SDS011;28087;-33.874;151.240;2024-01-15T09:52:33;16.15;;;2.95;;
20794;SDS011;28087;-33.874;151.240;2024-01-15T09:55:41;16.00;;;3.45;;
20794;SDS011;28087;-33.874;151.240;2024-01-15T09:58:47;15.82;;;2.80;;
20794;SDS011;28087;-33.874;151.240;2024-01-15T10:01:54;17.13;;;3.30;;
20794;SDS011;28087;-33.874;151.240;2024-01-15T10:05:01;14.68;;;3.15;;
20794;SDS011;28087;-33.874;151.240;2024-01-15T10:08:09;15.23;;;2.95;;
20794;SDS011;28087;-33.874;151.240;2024-01-15T10:11:15;13.25;;;2.70;;
20794;SDS011;28087;-33.874;151.240;2024-01-15T10:14:21;15.38;;;2.80;;
20794;SDS011;28087;-33.874;151.240;2024-01-15T10:17:28;13.57;;;2.85;;
20794;SDS011;28087;-33.874;151.240;2024-01-15T10:20:28;13.27;;;2.40;;
20794;SDS011;28087;-33.874;151.240;2024-01-15T10:23:37;10.43;;;2.30;;
20794;SDS011;28087;-33.874;151.240;2024-01-15T10:26:43;11.45;;;2.28;;
20794;SDS011;28087;-33.874;151.240;2024-01-15T10:29:49;11.27;;;2.35;;
20794;SDS011;28087;-33.874;151.240;2024-01-15T10:32:58;11.23;;;2.25;;
20794;SDS011;28087;-33.874;151.240;2024-01-15T10:36:05;12.60;;;2.50;;
20794;SDS011;28087;-33.874;151.240;2024-01-15T10:39:17;11.75;;;2.40;;
20794;SDS011;28087;-33.874;151.240;2024-01-15T10:42:24;11.48;;;2.28;;
20794;SDS011;28087;-33.874;151.240;2024-01-15T10:45:31;14.63;;;2.58;;
20794;SDS011;28087;-33.874;151.240;2024-01-15T10:48:37;10.63;;;2.25;;
20794;SDS011;28087;-33.874;151.240;2024-01-15T10:51:48;12.25;;;2.58;;
20794;SDS011;28087;-33.874;151.240;2024-01-15T10:54:57;11.18;;;2.53;;
20794;SDS011;28087;-33.874;151.240;2024-01-15T10:58:08;11.07;;;2.10;;
20794;SDS011;28087;-33.874;151.240;2024-01-15T11:01:16;14.95;;;2.38;;
20794;SDS011;28087;-33.874;151.240;2024-01-15T11:04:23;10.80;;;2.72;;
20794;SDS011;28087;-33.874;151.240;2024-01-15T11:07:30;14.85;;;2.35;;
20794;SDS011;28087;-33.874;151.240;2024-01-15T11:10:42;12.35;;;2.53;;
20794;SDS011;28087;-33.874;151.240;2024-01-15T11:13:49;11.05;;;2.40;;
20794;SDS011;28087;-33.874;151.240;2024-01-15T11:16:58;13.38;;;2.70;;
20794;SDS011;28087;-33.874;151.240;2024-01-15T11:20:11;12.60;;;2.95;;
20794;SDS011;28087;-33.874;151.240;2024-01-15T11:23:34;12.30;;;2.88;;
20794;SDS011;28087;-33.874;151.240;2024-01-15T11:26:49;11.52;;;2.67;;
20794;SDS011;28087;-33.874;151.240;2024-01-15T11:30:02;11.90;;;2.83;;
20794;SDS011;28087;-33.874;151.240;2024-01-15T11:33:23;15.25;;;3.20;;
20794;SDS011;28087;-33.874;151.240;2024-01-15T11:40:00;16.15;;;3.13;;
20794;SDS011;28087;-33.874;151.240;2024-01-15T11:43:13;16.17;;;3.22;;
20794;SDS011;28087;-33.874;151.240;2024-01-15T11:46:21;17.35;;;3.05;;
20794;SDS011;28087;-33.874;151.240;2024-01-15T11:49:31;17.02;;;3.15;;
20794;SDS011;28087;-33.874;151.240;2024-01-15T11:52:50;13.30;;;3.35;;
20794;SDS011;28087;-33.874;151.240;2024-01-15T11:56:11;18.23;;;2.83;;
20794;SDS011;28087;-33.874;151.240;2024-01-15T11:59:19;20.42;;;3.17;;
20794;SDS011;28087;-33.874;151.240;2024-01-15T12:02:21;14.90;;;2.53;;
20794;SDS011;28087;-33.874;151.240;2024-01-15T12:05:28;16.88;;;2.97;;
20794;SDS011;28087;-33.874;151.240;2024-01-15T12:08:49;13.70;;;2.50;;
20794;SDS011;28087;-33.874;151.240;2024-01-15T12:12:00;16.33;;;2.88;;
20794;SDS011;28087;-33.874;151.240;2024-01-15T12:15:15;18.55;;;3.20;;
20794;SDS011;28087;-33.874;151.240;2024-01-15T12:18:24;16.05;;;2.58;;
20794;SDS011;28087;-33.874;151.240;2024-01-15T12:21:33;21.38;;;2.75;;
20794;SDS011;28087;-33.874;151.240;2024-01-15T12:24:44;16.20;;;2.72;;
20794;SDS011;28087;-33.874;151.240;2024-01-15T12:27:53;15.38;;;2.90;;
20794;SDS011;28087;-33.874;151.240;2024-01-15T12:31:04;12.25;;;2.72;;
20794;SDS011;28087;-33.874;151.240;2024-01-15T12:34:11;17.40;;;2.95;;
20794;SDS011;28087;-33.874;151.240;2024-01-15T12:37:23;17.63;;;2.97;;
20794;SDS011;28087;-33.874;151.240;2024-01-15T12:40:43;15.77;;;2.75;;
20794;SDS011;28087;-33.874;151.240;2024-01-15T12:43:56;15.95;;;3.10;;
20794;SDS011;28087;-33.874;151.240;2024-01-15T12:47:28;12.00;;;2.22;;
20794;SDS011;28087;-33.874;151.240;2024-01-15T12:50:35;17.05;;;3.03;;
20794;SDS011;28087;-33.874;151.240;2024-01-15T12:53:45;12.35;;;2.58;;
20794;SDS011;28087;-33.874;151.240;2024-01-15T12:56:54;12.73;;;2.47;;
20794;SDS011;28087;-33.874;151.240;2024-01-15T13:00:09;19.05;;;2.42;;
20794;SDS011;28087;-33.874;151.240;2024-01-15T13:03:19;17.48;;;2.95;;
20794;SDS011;28087;-33.874;151.240;2024-01-15T13:06:26;18.67;;;2.80;;
20794;SDS011;28087;-33.874;151.240;2024-01-15T13:09:38;13.82;;;2.42;;
20794;SDS011;28087;-33.874;151.240;2024-01-15T13:12:57;19.90;;;2.63;;
20794;SDS011;28087;-33.874;151.240;2024-01-15T13:16:04;13.45;;;2.25;;
20794;SDS011;28087;-33.874;151.240;2024-01-15T13:19:15;13.90;;;2.47;;
20794;SDS011;28087;-33.874;151.240;2024-01-15T13:22:22;16.30;;;2.33;;
20794;SDS011;28087;-33.874;151.240;2024-01-15T13:25:34;15.52;;;3.15;;
20794;SDS011;28087;-33.874;151.240;2024-01-15T13:28:40;12.90;;;2.83;;
20794;SDS011;28087;-33.874;151.240;2024-01-15T13:31:47;15.82;;;2.53;;
20794;SDS011;28087;-33.874;151.240;2024-01-15T13:34:56;14.05;;;2.40;;
20794;SDS011;28087;-33.874;151.240;2024-01-15T13:38:10;18.70;;;2.63;;
20794;SDS011;28087;-33.874;151.240;2024-01-15T13:41:17;15.90;;;2.70;;
20794;SDS011;28087;-33.874;151.240;2024-01-15T13:44:24;12.50;;;2.28;;
20794;SDS011;28087;-33.874;151.240;2024-01-15T13:47:32;12.20;;;2.20;;
20794;SDS011;28087;-33.874;151.240;2024-01-15T13:50:42;11.73;;;2.03;;
20794;SDS011;28087;-33.874;151.240;2024-01-15T13:53:48;12.63;;;1.83;;
20794;SDS011;28087;-33.874;151.240;2024-01-15T13:56:54;13.18;;;2.42;;
20794;SDS011;28087;-33.874;151.240;2024-01-15T14:00:04;18.13;;;2.33;;
20794;SDS011;28087;-33.874;151.240;2024-01-15T14:03:15;11.52;;;2.33;;
20794;SDS011;28087;-33.874;151.240;2024-01-15T14:06:25;14.43;;;2.13;;
20794;SDS011;28087;-33.874;151.240;2024-01-15T14:09:41;10.80;;;2.03;;
20794;SDS011;28087;-33.874;151.240;2024-01-15T14:12:55;12.48;;;2.30;;
20794;SDS011;28087;-33.874;151.240;2024-01-15T14:16:08;11.23;;;2.20;;
20794;SDS011;28087;-33.874;151.240;2024-01-15T14:19:18;12.95;;;2.30;;
20794;SDS011;28087;-33.874;151.240;2024-01-15T14:22:28;13.73;;;2.38;;
20794;SDS011;28087;-33.874;151.240;2024-01-15T14:25:35;14.90;;;2.22;;
20794;SDS011;28087;-33.874;151.240;2024-01-15T14:28:41;11.82;;;2.30;;
20794;SDS011;28087;-33.874;151.240;2024-01-15T14:31:49;16.17;;;2.28;;
20794;SDS011;28087;-33.874;151.240;2024-01-15T14:34:58;12.00;;;2.17;;
20794;SDS011;28087;-33.874;151.240;2024-01-15T14:38:10;12.50;;;2.28;;
20794;SDS011;28087;-33.874;151.240;2024-01-15T14:41:16;12.98;;;2.50;;
20794;SDS011;28087;-33.874;151.240;2024-01-15T14:44:23;15.43;;;3.30;;
20794;SDS011;28087;-33.874;151.240;2024-01-15T14:47:31;10.57;;;2.13;;
20794;SDS011;28087;-33.874;151.240;2024-01-15T14:50:37;15.40;;;2.35;;
20794;SDS011;28087;-33.874;151.240;2024-01-15T14:53:47;15.60;;;2.33;;
20794;SDS011;28087;-33.874;151.240;2024-01-15T14:56:53;11.85;;;2.15;;
20794;SDS011;28087;-33.874;151.240;2024-01-15T15:00:01;12.35;;;2.25;;
20794;SDS011;28087;-33.874;151.240;2024-01-15T15:03:11;12.80;;;2.33;;
20794;SDS011;28087;-33.874;151.240;2024-01-15T15:06:19;11.40;;;2.10;;
20794;SDS011;28087;-33.874;151.240;2024-01-15T15:09:29;11.10;;;2.13;;
20794;SDS011;28087;-33.874;151.240;2024-01-15T15:12:37;9.45;;;2.17;;
20794;SDS011;28087;-33.874;151.240;2024-01-15T15:15:43;10.38;;;1.98;;
20794;SDS011;28087;-33.874;151.240;2024-01-15T15:18:51;14.80;;;2.53;;
20794;SDS011;28087;-33.874;151.240;2024-01-15T15:21:58;13.85;;;2.30;;
20794;SDS011;28087;-33.874;151.240;2024-01-15T15:25:09;14.32;;;2.20;;
20794;SDS011;28087;-33.874;151.240;2024-01-15T15:28:15;17.60;;;2.60;;
20794;SDS011;28087;-33.874;151.240;2024-01-15T15:31:26;13.52;;;2.30;;
20794;SDS011;28087;-33.874;151.240;2024-01-15T15:34:33;12.43;;;1.98;;
20794;SDS011;28087;-33.874;151.240;2024-01-15T15:37:42;13.32;;;2.55;;
20794;SDS011;28087;-33.874;151.240;2024-01-15T15:40:55;9.02;;;2.30;;
20794;SDS011;28087;-33.874;151.240;2024-01-15T15:47:23;17.83;;;2.97;;
20794;SDS011;28087;-33.874;151.240;2024-01-15T15:50:31;14.27;;;2.50;;
20794;SDS011;28087;-33.874;151.240;2024-01-15T15:53:38;13.45;;;2.63;;
20794;SDS011;28087;-33.874;151.240;2024-01-15T15:56:47;12.73;;;2.65;;
20794;SDS011;28087;-33.874;151.240;2024-01-15T15:59:52;22.10;;;3.05;;
20794;SDS011;28087;-33.874;151.240;2024-01-15T16:02:59;17.38;;;2.85;;
20794;SDS011;28087;-33.874;151.240;2024-01-15T16:06:00;19.08;;;3.90;;
20794;SDS011;28087;-33.874;151.240;2024-01-15T16:09:02;17.40;;;3.40;;
20794;SDS011;28087;-33.874;151.240;2024-01-15T16:12:11;16.85;;;3.05;;
20794;SDS011;28087;-33.874;151.240;2024-01-15T16:15:33;17.25;;;2.95;;
20794;SDS011;28087;-33.874;151.240;2024-01-15T16:18:59;16.98;;;2.92;;
20794;SDS011;28087;-33.874;151.240;2024-01-15T16:22:25;16.90;;;2.75;;
20794;SDS011;28087;-33.874;151.240;2024-01-15T16:25:51;16.25;;;2.88;;
20794;SDS011;28087;-33.874;151.240;2024-01-15T16:29:01;16.27;;;2.90;;
20794;SDS011;28087;-33.874;151.240;2024-01-15T16:32:07;12.63;;;2.75;;
20794;SDS011;28087;-33.874;151.240;2024-01-15T16:35:14;15.85;;;2.75;;
20794;SDS011;28087;-33.874;151.240;2024-01-15T16:38:15;19.17;;;3.08;;
20794;SDS011;28087;-33.874;151.240;2024-01-15T16:41:14;15.30;;;2.83;;
20794;SDS011;28087;-33.874;151.240;2024-01-15T16:44:25;19.08;;;2.97;;
20794;SDS011;28087;-33.874;151.240;2024-01-15T16:47:30;17.88;;;2.90;;
20794;SDS011;28087;-33.874;151.240;2024-01-15T16:50:36;14.45;;;2.67;;
20794;SDS011;28087;-33.874;151.240;2024-01-15T16:53:42;13.10;;;2.53;;
20794;SDS011;28087;-33.874;151.240;2024-01-15T16:56:48;13.32;;;2.50;;
20794;SDS011;28087;-33.874;151.240;2024-01-15T16:59:56;10.48;;;2.17;;
20794;SDS011;28087;-33.874;151.240;2024-01-15T17:03:02;15.13;;;2.30;;
20794;SDS011;28087;-33.874;151.240;2024-01-15T17:06:08;10.57;;;2.30;;
20794;SDS011;28087;-33.874;151.240;2024-01-15T17:09:14;11.98;;;1.95;;
20794;SDS011;28087;-33.874;151.240;2024-01-15T17:12:20;12.88;;;2.40;;
20794;SDS011;28087;-33.874;151.240;2024-01-15T17:15:29;10.63;;;2.10;;
20794;SDS011;28087;-33.874;151.240;2024-01-15T17:18:37;12.50;;;2.17;;
20794;SDS011;28087;-33.874;151.240;2024-01-15T17:21:43;11.35;;;2.00;;
20794;SDS011;28087;-33.874;151.240;2024-01-15T17:24:50;14.27;;;2.38;;
20794;SDS011;28087;-33.874;151.240;2024-01-15T17:27:56;11.10;;;2.28;;
20794;SDS011;28087;-33.874;151.240;2024-01-15T17:31:04;14.13;;;2.50;;
20794;SDS011;28087;-33.874;151.240;2024-01-15T17:34:11;14.18;;;2.20;;
20794;SDS011;28087;-33.874;151.240;2024-01-15T17:37:17;12.43;;;2.05;;
20794;SDS011;28087;-33.874;151.240;2024-01-15T17:40:28;11.88;;;2.30;;
20794;SDS011;28087;-33.874;151.240;2024-01-15T17:43:34;11.32;;;2.30;;
20794;SDS011;28087;-33.874;151.240;2024-01-15T17:46:43;10.98;;;1.75;;
20794;SDS011;28087;-33.874;151.240;2024-01-15T17:49:50;9.15;;;1.92;;
20794;SDS011;28087;-33.874;151.240;2024-01-15T17:52:56;14.70;;;2.33;;
20794;SDS011;28087;-33.874;151.240;2024-01-15T17:56:02;12.18;;;1.90;;
20794;SDS011;28087;-33.874;151.240;2024-01-15T17:59:08;9.18;;;1.98;;
20794;SDS011;28087;-33.874;151.240;2024-01-15T18:02:16;12.27;;;2.05;;
20794;SDS011;28087;-33.874;151.240;2024-01-15T18:05:21;10.88;;;2.05;;
20794;SDS011;28087;-33.874;151.240;2024-01-15T18:08:29;11.88;;;2.35;;
20794;SDS011;28087;-33.874;151.240;2024-01-15T18:11:35;8.68;;;1.95;;